Time;durP1;ratioP1;P1;durP2;ratioP2;P2;SDS_P1;SDS_P2;PMS_P1;PMS_P2;Temp;Humidity;BMP_temperature;BMP_pressure;BME280_temperature;BME280_humidity;BME280_pressure;Samples;Min_cycle;Max_cycle;Signal;HPM_P1;HPM_P2
2023/06/20 00:00:25;;;;;;;;;;;;;;;20.99;38.32;100401.31;4908554;28;98088;-71
2023/06/20 00:02:51;;;;;;;;;;;;;;;20.97;38.37;100411.78;4909431;28;98787;-71
2023/06/20 00:05:17;;;;;;;;;;;;;;;20.95;38.30;100412.13;4919578;28;98070;-71
2023/06/20 00:07:44;;;;;;;;;;;;;;;20.94;38.45;100412.47;4910760;28;98157;-72
2023/06/20 00:10:11;;;;;;;;;;;;;;;20.92;38.35;100407.34;4913211;28;99663;-72
2023/06/20 00:12:37;;;;;;;;;;;;;;;20.91;38.31;100405.72;4914506;28;98009;-64
2023/06/20 00:15:04;;;;;;;;;;;;;;;20.89;38.48;100401.72;4931411;28;98098;-64
2023/06/20 00:17:30;;;;;;;;;;;;;;;20.87;38.48;100401.25;4914144;28;100052;-64
2023/06/20 00:19:57;;;;;;;;;;;;;;;20.83;38.33;100401.94;4913236;28;98183;-64
2023/06/20 00:22:24;;;;;;;;;;;;;;;20.81;38.48;100400.66;4909959;28;98251;-64
2023/06/20 00:24:51;;;;;;;;;;;;;;;20.79;38.39;100406.50;4910299;28;100017;-64
2023/06/20 00:27:17;;;;;;;;;;;;;;;20.77;38.40;100411.50;4907444;28;98713;-64
2023/06/20 00:29:44;;;;;;;;;;;;;;;20.74;38.47;100411.38;4915820;28;98322;-72
2023/06/20 00:32:10;;;;;;;;;;;;;;;20.71;38.44;100407.38;4912068;28;100069;-71
2023/06/20 00:34:37;;;;;;;;;;;;;;;20.68;38.46;100410.00;4931676;28;99777;-71
2023/06/20 00:37:03;;;;;;;;;;;;;;;20.65;38.46;100414.19;4913236;28;98049;-64
2023/06/20 00:39:30;;;;;;;;;;;;;;;20.61;38.53;100413.25;4913678;28;98064;-64
2023/06/20 00:41:58;;;;;;;;;;;;;;;20.58;38.44;100412.00;4912372;28;98033;-71
2023/06/20 00:44:25;;;;;;;;;;;;;;;20.54;38.63;100408.31;4932924;28;98301;-71
2023/06/20 00:46:51;;;;;;;;;;;;;;;20.53;38.63;100412.19;4913281;28;99683;-71
2023/06/20 00:49:18;;;;;;;;;;;;;;;20.50;38.67;100406.59;4914167;28;98041;-64
2023/06/20 00:51:44;;;;;;;;;;;;;;;20.46;38.58;100400.97;4919509;28;98006;-64
2023/06/20 00:54:11;;;;;;;;;;;;;;;20.46;38.67;100402.91;4927441;28;98297;-71
2023/06/20 00:56:37;;;;;;;;;;;;;;;20.43;38.53;100401.63;4915120;28;97983;-64
2023/06/20 00:59:04;;;;;;;;;;;;;;;20.40;38.65;100399.56;4918939;28;97886;-71
2023/06/20 01:01:32;;;;;;;;;;;;;;;20.38;38.71;100393.63;4925760;28;98515;-72
2023/06/20 01:04:00;;;;;;;;;;;;;;;20.35;38.54;100397.81;4914277;28;98117;-64
2023/06/20 01:06:32;;;;;;;;;;;;;;;20.33;38.63;100391.88;4909501;28;98123;-64
2023/06/20 01:09:09;;;;;;;;;;;;;;;20.30;38.60;100394.50;4951415;28;98158;-71
2023/06/20 01:11:43;;;;;;;;;;;;;;;20.26;38.67;100388.88;4925373;28;101149;-72
2023/06/20 01:14:15;;;;;;;;;;;;;;;20.24;38.68;100390.34;4923819;28;98527;-64
2023/06/20 01:16:58;;;;;;;;;;;;;;;20.21;38.68;100396.50;4921256;28;98573;-71
2023/06/20 01:19:33;;;;;;;;;;;;;;;20.18;38.69;100387.03;4938875;28;98170;-71
2023/06/20 01:22:02;;;;;;;;;;;;;;;20.15;38.70;100386.88;4935202;28;98637;-71
2023/06/20 01:24:49;;;;;;;;;;;;;;;20.12;38.88;100382.88;4912277;28;100205;-73
2023/06/20 01:27:20;;;;;;;;;;;;;;;20.09;38.75;100386.28;4924991;28;99796;-72
2023/06/20 01:30:00;;;;;;;;;;;;;;;20.04;38.77;100379.09;4925950;28;98268;-65
2023/06/20 01:32:26;;;;;;;;;;;;;;;20.02;38.74;100375.06;4923101;28;99753;-72
2023/06/20 01:34:56;;;;;;;;;;;;;;;20.00;38.86;100374.59;4908144;28;98157;-64
2023/06/20 01:37:23;;;;;;;;;;;;;;;19.97;38.78;100372.53;4925741;28;98102;-72
2023/06/20 01:39:54;;;;;;;;;;;;;;;19.92;38.95;100373.50;4926330;28;98009;-64
2023/06/20 01:42:22;;;;;;;;;;;;;;;19.87;38.85;100368.25;4910298;28;98230;-72
2023/06/20 01:44:49;;;;;;;;;;;;;;;19.83;38.95;100364.56;4923405;28;97931;-72
2023/06/20 01:47:16;;;;;;;;;;;;;;;19.80;39.03;100360.56;4909727;28;98118;-72
2023/06/20 01:49:43;;;;;;;;;;;;;;;19.80;38.77;100363.28;4907286;28;99523;-72
2023/06/20 01:52:11;;;;;;;;;;;;;;;19.78;38.93;100362.03;4907616;28;98154;-64
2023/06/20 01:54:38;;;;;;;;;;;;;;;19.74;38.97;100361.91;4907860;28;98222;-64
2023/06/20 01:57:05;;;;;;;;;;;;;;;19.73;38.79;100368.50;4919749;28;98314;-72
2023/06/20 01:59:31;;;;;;;;;;;;;;;19.72;38.89;100361.41;4909501;28;98412;-72
2023/06/20 02:01:58;;;;;;;;;;;;;;;19.70;38.90;100354.69;4908151;28;98143;-64
2023/06/20 02:04:25;;;;;;;;;;;;;;;19.69;39.02;100359.38;4909412;28;98138;-72
2023/06/20 02:06:53;;;;;;;;;;;;;;;19.67;39.05;100364.34;4906384;28;98085;-70
2023/06/20 02:09:19;;;;;;;;;;;;;;;19.65;38.70;100363.91;4909693;28;97945;-64
2023/06/20 02:11:47;;;;;;;;;;;;;;;19.63;39.05;100360.69;4910895;28;97922;-72
2023/06/20 02:14:13;;;;;;;;;;;;;;;19.61;38.92;100352.81;4909455;28;100123;-64
2023/06/20 02:16:41;;;;;;;;;;;;;;;19.60;39.15;100353.91;4908726;28;98233;-72
2023/06/20 02:19:07;;;;;;;;;;;;;;;19.60;38.85;100347.63;4919263;28;98211;-65
2023/06/20 02:21:38;;;;;;;;;;;;;;;19.58;38.94;100339.78;4911178;28;98123;-64
2023/06/20 02:24:06;;;;;;;;;;;;;;;19.57;39.02;100338.19;4900996;28;98059;-72
2023/06/20 02:26:32;;;;;;;;;;;;;;;19.55;39.01;100343.16;4906824;28;98256;-65
2023/06/20 02:28:58;;;;;;;;;;;;;;;19.51;38.86;100335.97;4907057;28;98159;-64
2023/06/20 02:31:27;;;;;;;;;;;;;;;19.51;39.25;100344.16;4924606;28;98402;-64
2023/06/20 02:33:56;;;;;;;;;;;;;;;19.56;39.11;100352.16;4904792;28;98137;-72
2023/06/20 02:36:27;;;;;;;;;;;;;;;19.63;39.06;100346.22;4909615;28;98059;-64
2023/06/20 02:38:53;;;;;;;;;;;;;;;19.69;39.00;100351.16;4911114;28;98364;-64
2023/06/20 02:41:20;;;;;;;;;;;;;;;19.73;39.19;100354.84;4908541;28;98585;-66
2023/06/20 02:43:47;;;;;;;;;;;;;;;19.76;39.01;100353.34;4913362;28;97943;-64
2023/06/20 02:46:51;;;;;;;;;;;;;;;19.78;39.08;100340.97;4910516;28;98257;-64
2023/06/20 02:49:22;;;;;;;;;;;;;;;19.82;39.10;100339.16;4934818;28;98520;-64
2023/06/20 02:52:04;;;;;;;;;;;;;;;19.85;38.96;100346.72;4937292;28;98185;-72
2023/06/20 02:54:51;;;;;;;;;;;;;;;19.89;38.91;100349.59;4910283;28;98428;-65
2023/06/20 02:57:19;;;;;;;;;;;;;;;19.90;38.98;100344.91;4904888;28;98251;-64
2023/06/20 02:59:48;;;;;;;;;;;;;;;19.92;39.15;100356.31;4906248;28;98198;-64
2023/06/20 03:02:17;;;;;;;;;;;;;;;19.93;38.98;100357.94;4909479;28;99928;-72
2023/06/20 03:04:44;;;;;;;;;;;;;;;19.93;39.22;100357.94;4912750;28;98205;-72
2023/06/20 03:07:10;;;;;;;;;;;;;;;19.95;39.16;100370.13;4913736;28;98136;-72
2023/06/20 03:09:36;;;;;;;;;;;;;;;19.95;39.10;100367.38;4909603;28;98299;-72
2023/06/20 03:12:05;;;;;;;;;;;;;;;19.95;39.14;100370.13;4908054;28;116879;-64
2023/06/20 03:14:32;;;;;;;;;;;;;;;19.94;39.19;100368.53;4913829;28;98655;-72
2023/06/20 03:16:59;;;;;;;;;;;;;;;19.94;39.10;100360.31;4907436;28;98580;-65
2023/06/20 03:19:25;;;;;;;;;;;;;;;19.95;39.01;100375.59;4911644;28;97945;-72
2023/06/20 03:21:53;;;;;;;;;;;;;;;19.95;39.27;100378.31;4906288;28;98295;-72
2023/06/20 03:24:20;;;;;;;;;;;;;;;19.97;39.30;100380.75;4923670;28;98979;-72
2023/06/20 03:26:46;;;;;;;;;;;;;;;19.96;39.09;100385.38;4912598;28;98825;-64
2023/06/20 03:29:13;;;;;;;;;;;;;;;19.97;39.22;100386.22;4906434;28;98164;-64
2023/06/20 03:31:40;;;;;;;;;;;;;;;19.98;39.17;100385.88;4910149;28;98314;-72
2023/06/20 03:34:07;;;;;;;;;;;;;;;19.96;39.27;100390.06;4909408;28;99827;-72
2023/06/20 03:36:34;;;;;;;;;;;;;;;19.93;39.25;100386.09;4908151;28;98065;-72
2023/06/20 03:39:01;;;;;;;;;;;;;;;19.92;39.10;100394.59;4910307;28;98206;-65
2023/06/20 03:41:27;;;;;;;;;;;;;;;19.91;39.30;100399.28;4908437;28;98633;-65
2023/06/20 03:43:54;;;;;;;;;;;;;;;19.91;39.16;100396.53;4913529;28;98126;-65
2023/06/20 03:46:21;;;;;;;;;;;;;;;19.92;39.30;100402.81;4907537;28;98147;-72
2023/06/20 03:48:48;;;;;;;;;;;;;;;19.92;39.11;100395.41;4914945;28;98049;-65
2023/06/20 03:51:14;;;;;;;;;;;;;;;19.92;39.27;100402.81;4879246;28;98825;-65
2023/06/20 03:53:41;;;;;;;;;;;;;;;19.91;39.23;100401.22;4893199;28;99781;-65
2023/06/20 03:56:09;;;;;;;;;;;;;;;19.93;39.05;100407.97;4863310;28;101228;-72
2023/06/20 03:58:36;;;;;;;;;;;;;;;19.98;38.99;100406.97;4899982;28;100782;-65
2023/06/20 04:01:02;;;;;;;;;;;;;;;20.02;39.00;100418.84;4922844;28;98454;-73
2023/06/20 04:03:29;;;;;;;;;;;;;;;20.05;39.11;100402.56;4914183;28;98083;-65
2023/06/20 04:06:01;;;;;;;;;;;;;;;20.10;39.15;100407.03;4927403;28;98550;-65
2023/06/20 04:08:31;;;;;;;;;;;;;;;20.17;39.12;100404.56;4909057;28;98058;-66
2023/06/20 04:10:58;;;;;;;;;;;;;;;20.25;39.03;100409.19;4894979;28;99174;-65
2023/06/20 04:13:24;;;;;;;;;;;;;;;20.32;39.02;100408.66;4923233;28;98399;-73
2023/06/20 04:15:50;;;;;;;;;;;;;;;20.40;38.98;100405.06;4932059;28;98719;-65
2023/06/20 04:18:17;;;;;;;;;;;;;;;20.48;38.90;100404.19;4942537;28;99805;-65
2023/06/20 04:20:44;;;;;;;;;;;;;;;20.57;38.92;100410.41;4923709;28;98000;-72
2023/06/20 04:23:10;;;;;;;;;;;;;;;20.67;38.81;100419.31;4934452;28;99848;-73
2023/06/20 04:25:36;;;;;;;;;;;;;;;20.77;38.68;100413.44;4943174;27;98450;-73
2023/06/20 04:28:03;;;;;;;;;;;;;;;20.88;38.76;100413.81;4932622;27;99390;-65
2023/06/20 04:30:31;;;;;;;;;;;;;;;21.00;38.64;100413.84;4930766;28;98444;-65
2023/06/20 04:32:57;;;;;;;;;;;;;;;21.11;38.59;100414.22;4924667;28;98039;-65
2023/06/20 04:35:23;;;;;;;;;;;;;;;21.21;38.62;100417.31;4930435;28;98071;-65
2023/06/20 04:37:51;;;;;;;;;;;;;;;21.30;38.66;100418.03;4925156;27;98269;-72
2023/06/20 04:40:18;;;;;;;;;;;;;;;21.38;38.52;100415.53;4932034;28;98691;-65
2023/06/20 04:42:47;;;;;;;;;;;;;;;21.45;38.48;100418.53;4931678;28;98163;-73
2023/06/20 04:45:13;;;;;;;;;;;;;;;21.52;38.66;100424.25;4942397;28;98494;-72
2023/06/20 04:47:41;;;;;;;;;;;;;;;21.58;38.66;100422.09;4940988;28;98238;-70
2023/06/20 04:50:09;;;;;;;;;;;;;;;21.66;38.52;100424.72;4926468;27;98626;-65
2023/06/20 04:52:36;;;;;;;;;;;;;;;21.71;38.63;100429.16;4929894;27;98084;-65
2023/06/20 04:55:02;;;;;;;;;;;;;;;21.76;38.52;100426.97;4926822;28;98059;-72
2023/06/20 04:57:30;;;;;;;;;;;;;;;21.81;38.50;100424.03;4929675;27;97828;-72
2023/06/20 04:59:56;;;;;;;;;;;;;;;21.88;38.42;100419.91;4944054;27;98216;-73
2023/06/20 05:02:25;;;;;;;;;;;;;;;21.96;38.54;100425.25;4946378;28;98703;-65
2023/06/20 05:04:51;;;;;;;;;;;;;;;22.08;38.45;100418.94;4930847;28;99101;-72
2023/06/20 05:07:18;;;;;;;;;;;;;;;22.17;38.42;100419.66;4930749;27;98274;-65
2023/06/20 05:09:44;;;;;;;;;;;;;;;22.30;38.28;100418.47;4938578;27;100270;-65
2023/06/20 05:12:11;;;;;;;;;;;;;;;22.44;38.20;100417.28;4928687;27;98025;-65
2023/06/20 05:14:37;;;;;;;;;;;;;;;22.59;38.33;100416.53;4928733;28;98145;-73
2023/06/20 05:17:04;;;;;;;;;;;;;;;22.75;37.98;100414.66;4922523;28;98111;-66
2023/06/20 05:19:32;;;;;;;;;;;;;;;22.91;37.96;100422.97;4927827;28;99633;-65
2023/06/20 05:21:59;;;;;;;;;;;;;;;23.09;37.99;100417.94;4931330;28;99160;-65
2023/06/20 05:24:25;;;;;;;;;;;;;;;23.29;37.82;100418.84;4933586;28;98273;-73
2023/06/20 05:26:52;;;;;;;;;;;;;;;23.45;37.75;100424.34;4923839;28;98119;-65
2023/06/20 05:29:19;;;;;;;;;;;;;;;23.62;37.83;100429.50;4931825;28;98363;-65
2023/06/20 05:31:45;;;;;;;;;;;;;;;23.75;37.57;100425.50;4936371;27;100319;-73
2023/06/20 05:34:12;;;;;;;;;;;;;;;23.88;37.68;100425.41;4933250;28;102004;-73
2023/06/20 05:36:38;;;;;;;;;;;;;;;24.12;37.58;100425.16;4932482;28;97975;-72
2023/06/20 05:39:04;;;;;;;;;;;;;;;24.28;37.45;100436.13;4924582;28;99724;-65
2023/06/20 05:41:31;;;;;;;;;;;;;;;24.40;37.30;100441.53;4936660;28;98101;-65
2023/06/20 05:43:57;;;;;;;;;;;;;;;24.56;37.21;100438.69;4932885;27;98188;-65
2023/06/20 05:46:23;;;;;;;;;;;;;;;25.00;36.95;100440.38;4931384;28;98905;-74
2023/06/20 05:48:50;;;;;;;;;;;;;;;25.18;37.06;100449.75;4933384;28;98124;-65
2023/06/20 05:51:16;;;;;;;;;;;;;;;25.11;37.14;100452.38;4944798;28;98885;-73
2023/06/20 05:53:42;;;;;;;;;;;;;;;25.05;37.32;100448.31;4933811;28;98185;-65
2023/06/20 05:56:13;;;;;;;;;;;;;;;24.95;37.60;100447.75;4929885;28;98312;-73
2023/06/20 05:58:41;;;;;;;;;;;;;;;24.95;37.53;100441.44;4951455;27;98353;-73
2023/06/20 06:01:08;;;;;;;;;;;;;;;24.95;37.78;100441.44;4933542;28;98209;-65
2023/06/20 06:03:35;;;;;;;;;;;;;;;24.94;37.49;100432.38;4925301;28;98447;-65
2023/06/20 06:06:03;;;;;;;;;;;;;;;24.96;37.67;100432.81;4934458;28;98069;-73
2023/06/20 06:08:29;;;;;;;;;;;;;;;25.00;37.50;100441.16;4936609;28;98186;-74
2023/06/20 06:10:56;;;;;;;;;;;;;;;25.07;37.58;100429.44;4948231;28;98576;-66
2023/06/20 06:13:22;;;;;;;;;;;;;;;25.14;37.45;100432.38;4949695;28;98146;-73
2023/06/20 06:15:48;;;;;;;;;;;;;;;25.17;37.62;100437.94;4930533;28;105381;-74
2023/06/20 06:18:15;;;;;;;;;;;;;;;25.19;37.57;100438.38;4931492;28;99714;-74
2023/06/20 06:20:44;;;;;;;;;;;;;;;25.23;37.66;100441.22;4933616;28;99804;-74
2023/06/20 06:23:10;;;;;;;;;;;;;;;25.24;37.72;100434.53;4933566;28;99317;-65
2023/06/20 06:25:37;;;;;;;;;;;;;;;25.25;37.66;100440.84;4929330;28;98649;-67
2023/06/20 06:28:03;;;;;;;;;;;;;;;25.25;37.82;100440.84;4937229;27;98169;-66
2023/06/20 06:30:33;;;;;;;;;;;;;;;25.26;37.60;100437.69;4931360;28;98200;-66
2023/06/20 06:32:59;;;;;;;;;;;;;;;25.30;37.50;100437.75;4928672;27;98546;-74
2023/06/20 06:35:25;;;;;;;;;;;;;;;25.34;37.77;100438.63;4925364;28;98186;-66
2023/06/20 06:37:52;;;;;;;;;;;;;;;25.40;37.64;100435.19;4941123;27;98532;-74
2023/06/20 06:40:20;;;;;;;;;;;;;;;25.47;37.69;100431.78;4929982;28;97988;-74
2023/06/20 06:42:46;;;;;;;;;;;;;;;25.53;37.53;100433.03;4945130;27;97980;-73
2023/06/20 06:45:13;;;;;;;;;;;;;;;25.59;37.50;100437.09;4930845;28;98598;-74
2023/06/20 06:47:39;;;;;;;;;;;;;;;25.68;37.48;100431.31;4929539;28;98241;-66
2023/06/20 06:50:06;;;;;;;;;;;;;;;25.77;37.43;100431.03;4928897;28;98062;-65
2023/06/20 06:52:34;;;;;;;;;;;;;;;25.92;37.42;100430.13;4922913;27;98211;-74
2023/06/20 06:55:00;;;;;;;;;;;;;;;26.09;37.31;100432.34;4944015;27;98517;-66
2023/06/20 06:57:26;;;;;;;;;;;;;;;26.30;37.01;100433.81;4929717;28;98120;-74
2023/06/20 06:59:53;;;;;;;;;;;;;;;26.59;37.00;100440.50;4934989;28;100198;-74
2023/06/20 07:02:20;;;;;;;;;;;;;;;27.12;36.34;100441.13;4948377;28;98144;-66
2023/06/20 07:04:46;;;;;;;;;;;;;;;27.33;36.27;100440.53;4952869;27;97878;-66
2023/06/20 07:07:13;;;;;;;;;;;;;;;27.69;36.37;100438.06;4930613;28;98307;-66
2023/06/20 07:09:39;;;;;;;;;;;;;;;27.85;36.12;100441.34;4930284;27;98438;-75
2023/06/20 07:12:05;;;;;;;;;;;;;;;28.09;36.30;100437.16;4948963;28;99255;-75
2023/06/20 07:14:33;;;;;;;;;;;;;;;28.04;36.41;100440.31;4932450;28;98108;-74
2023/06/20 07:17:00;;;;;;;;;;;;;;;28.14;36.11;100436.81;4931132;27;98485;-66
2023/06/20 07:19:26;;;;;;;;;;;;;;;28.63;36.04;100434.66;4928159;28;100733;-75
2023/06/20 07:21:52;;;;;;;;;;;;;;;29.65;35.31;100448.34;4943172;27;98389;-75
2023/06/20 07:24:18;;;;;;;;;;;;;;;30.44;34.55;100447.00;4930936;28;98353;-75
2023/06/20 07:26:45;;;;;;;;;;;;;;;30.50;34.89;100444.63;4926794;28;98418;-66
2023/06/20 07:29:11;;;;;;;;;;;;;;;30.54;35.10;100446.19;4930362;28;98264;-75
2023/06/20 07:31:37;;;;;;;;;;;;;;;30.66;35.05;100447.72;4929366;27;97866;-75
2023/06/20 07:34:03;;;;;;;;;;;;;;;30.66;35.38;100444.16;4943063;28;97973;-75
2023/06/20 07:36:29;;;;;;;;;;;;;;;30.55;35.64;100444.19;4940794;28;98573;-66
2023/06/20 07:38:55;;;;;;;;;;;;;;;30.32;35.78;100451.03;4929750;28;98379;-75
2023/06/20 07:41:21;;;;;;;;;;;;;;;30.11;36.03;100448.28;4928147;28;98440;-75
2023/06/20 07:43:48;;;;;;;;;;;;;;;29.91;36.41;100450.72;4944387;27;111422;-66
2023/06/20 07:46:15;;;;;;;;;;;;;;;29.74;36.68;100457.06;4927768;28;98013;-76
2023/06/20 07:48:43;;;;;;;;;;;;;;;29.59;36.26;100450.72;4929661;27;98229;-67
2023/06/20 07:51:09;;;;;;;;;;;;;;;29.47;36.38;100451.88;4931675;28;98208;-76
2023/06/20 07:53:35;;;;;;;;;;;;;;;29.34;36.94;100457.03;4930278;28;98147;-67
2023/06/20 07:56:01;;;;;;;;;;;;;;;29.16;36.94;100458.19;4928615;27;98158;-71
2023/06/20 07:58:28;;;;;;;;;;;;;;;28.91;36.85;100455.34;4933394;28;100765;-75
2023/06/20 08:00:56;;;;;;;;;;;;;;;28.62;37.28;100458.84;4933610;27;98046;-66
2023/06/20 08:03:24;;;;;;;;;;;;;;;28.33;37.63;100459.84;4926474;28;99877;-75
2023/06/20 08:05:51;;;;;;;;;;;;;;;28.09;37.72;100464.84;4927292;28;98153;-76
2023/06/20 08:08:18;;;;;;;;;;;;;;;27.89;37.61;100464.34;4944147;28;98273;-76
2023/06/20 08:10:44;;;;;;;;;;;;;;;27.76;37.56;100463.06;4930196;27;99675;-66
2023/06/20 08:13:11;;;;;;;;;;;;;;;27.71;37.86;100460.63;4928627;28;98611;-67
2023/06/20 08:15:37;;;;;;;;;;;;;;;27.66;37.79;100459.00;4941973;28;98765;-76
2023/06/20 08:18:03;;;;;;;;;;;;;;;27.64;37.52;100461.34;4945102;28;98071;-67
2023/06/20 08:20:30;;;;;;;;;;;;;;;27.63;37.58;100467.28;4927081;27;98198;-76
2023/06/20 08:22:56;;;;;;;;;;;;;;;27.59;37.70;100470.03;4931398;27;98119;-66
2023/06/20 08:25:23;;;;;;;;;;;;;;;27.54;37.70;100473.13;4923697;27;97996;-77
2023/06/20 08:27:48;;;;;;;;;;;;;;;27.48;37.50;100476.66;4943206;27;98611;-67
2023/06/20 08:30:15;;;;;;;;;;;;;;;27.42;37.83;100479.75;4932275;28;98830;-67
2023/06/20 08:32:42;;;;;;;;;;;;;;;27.38;37.79;100481.69;4947068;28;98054;-67
2023/06/20 08:35:09;;;;;;;;;;;;;;;27.39;37.66;100482.47;4933325;28;99704;-67
2023/06/20 08:37:37;;;;;;;;;;;;;;;27.46;37.75;100492.81;4934337;27;98014;-67
2023/06/20 08:40:08;;;;;;;;;;;;;;;27.60;37.57;100504.81;4929855;28;100004;-76
2023/06/20 08:42:34;;;;;;;;;;;;;;;27.85;37.30;100485.66;4930276;28;98313;-76
2023/06/20 08:45:00;;;;;;;;;;;;;;;28.14;36.97;100477.56;4932582;27;98306;-76
2023/06/20 08:47:26;;;;;;;;;;;;;;;28.76;36.46;100499.66;4927224;28;98478;-76
2023/06/20 08:49:53;;;;;;;;;;;;;;;29.57;35.91;100492.78;4948785;27;99190;-76
2023/06/20 08:52:23;;;;;;;;;;;;;;;29.46;35.83;100496.72;4931532;28;98132;-77
2023/06/20 08:54:49;;;;;;;;;;;;;;;29.43;36.12;100492.72;4933169;27;99279;-66
2023/06/20 08:57:18;;;;;;;;;;;;;;;29.70;35.78;100498.72;4930921;28;99481;-67
2023/06/20 08:59:44;;;;;;;;;;;;;;;29.75;36.17;100503.91;4934149;28;98043;-76
2023/06/20 09:02:11;;;;;;;;;;;;;;;29.53;36.54;100493.94;4948845;28;98203;-77
2023/06/20 09:04:37;;;;;;;;;;;;;;;29.38;36.36;100495.13;4932941;27;99569;-76
2023/06/20 09:07:17;;;;;;;;;;;;;;;29.27;36.45;100495.88;4933694;28;98542;-74
2023/06/20 09:09:44;;;;;;;;;;;;;;;29.20;36.49;100497.84;4948809;28;98540;-65
2023/06/20 09:12:10;;;;;;;;;;;;;;;29.10;36.76;100493.88;4933857;27;98273;-74
2023/06/20 09:14:36;;;;;;;;;;;;;;;28.96;37.24;100483.50;4944667;28;99200;-64
2023/06/20 09:17:05;;;;;;;;;;;;;;;28.83;36.93;100488.59;4945461;27;98201;-65
2023/06/20 09:19:42;;;;;;;;;;;;;;;28.72;37.39;100490.53;4935112;27;98302;-74
2023/06/20 09:22:10;;;;;;;;;;;;;;;28.61;37.49;100490.53;4946670;28;97879;-65
2023/06/20 09:24:42;;;;;;;;;;;;;;;28.54;37.16;100489.69;4932696;28;98404;-74
2023/06/20 09:27:09;;;;;;;;;;;;;;;28.47;37.51;100501.53;4926833;28;97915;-77
2023/06/20 09:29:51;;;;;;;;;;;;;;;28.42;37.25;100498.34;4931909;28;99518;-77
2023/06/20 09:32:21;;;;;;;;;;;;;;;28.38;37.50;100499.13;4924230;28;99306;-67
2023/06/20 09:34:47;;;;;;;;;;;;;;;28.37;37.14;100494.75;4935412;27;98168;-76
2023/06/20 09:37:16;;;;;;;;;;;;;;;28.37;37.48;100499.47;4934428;28;98506;-67
2023/06/20 09:39:43;;;;;;;;;;;;;;;28.33;37.19;100493.88;4952293;27;97922;-67
2023/06/20 09:42:13;;;;;;;;;;;;;;;28.35;37.50;100497.09;4938263;28;98426;-77
2023/06/20 09:44:42;;;;;;;;;;;;;;;28.33;37.21;100498.63;4932696;28;98089;-76
2023/06/20 09:47:08;;;;;;;;;;;;;;;28.25;37.26;100492.25;4931749;28;98430;-68
2023/06/20 09:49:39;;;;;;;;;;;;;;;28.15;37.65;100498.53;4927873;28;98385;-67
2023/06/20 09:52:07;;;;;;;;;;;;;;;28.09;37.53;100500.06;4934637;28;98164;-67
2023/06/20 09:54:56;;;;;;;;;;;;;;;28.05;37.44;100502.81;4931940;28;97964;-77
2023/06/20 09:57:25;;;;;;;;;;;;;;;28.12;37.58;100507.63;4965109;28;98167;-67
2023/06/20 09:59:51;;;;;;;;;;;;;;;28.33;37.03;100507.75;4934408;28;98132;-67
2023/06/20 10:02:18;;;;;;;;;;;;;;;28.81;36.52;100512.38;4945183;28;98011;-77
2023/06/20 10:04:44;;;;;;;;;;;;;;;29.05;36.28;100516.47;4932437;27;98250;-67
2023/06/20 10:07:14;;;;;;;;;;;;;;;29.01;36.50;100519.22;4931974;28;98055;-67
2023/06/20 10:09:43;;;;;;;;;;;;;;;28.91;36.56;100510.81;4932819;27;98341;-67
2023/06/20 10:12:10;;;;;;;;;;;;;;;28.78;36.81;100505.63;4928808;27;98140;-77
2023/06/20 10:14:36;;;;;;;;;;;;;;;28.69;37.26;100516.31;4930966;28;99619;-76
2023/06/20 10:17:11;;;;;;;;;;;;;;;28.60;37.01;100516.63;4934395;28;98153;-67
2023/06/20 10:19:48;;;;;;;;;;;;;;;28.58;36.97;100516.25;4943884;27;97933;-77
2023/06/20 10:22:14;;;;;;;;;;;;;;;28.71;36.75;100518.66;4964963;28;98317;-77
2023/06/20 10:24:43;;;;;;;;;;;;;;;28.97;36.92;100523.13;4947234;27;98401;-67
2023/06/20 10:27:10;;;;;;;;;;;;;;;29.01;36.47;100519.22;4930081;28;98290;-76
2023/06/20 10:29:41;;;;;;;;;;;;;;;28.96;37.02;100516.78;4933813;28;98076;-67
2023/06/20 10:32:09;;;;;;;;;;;;;;;28.80;36.88;100511.56;4927317;28;98039;-77
2023/06/20 10:34:41;;;;;;;;;;;;;;;28.61;37.43;100503.56;4930351;27;98258;-67
2023/06/20 10:37:25;;;;;;;;;;;;;;;28.36;37.64;100501.47;4921892;28;97852;-77
2023/06/20 10:39:52;;;;;;;;;;;;;;;28.17;37.41;100495.38;4956900;27;97909;-65
2023/06/20 10:42:38;;;;;;;;;;;;;;;28.08;37.79;100499.28;4945944;28;98147;-74
2023/06/20 10:45:18;;;;;;;;;;;;;;;28.07;37.44;100503.25;4964915;28;98237;-74
2023/06/20 10:47:45;;;;;;;;;;;;;;;28.21;37.63;100510.84;4945819;28;98176;-65
2023/06/20 10:50:11;;;;;;;;;;;;;;;28.33;37.19;100495.88;4939746;28;98615;-65
2023/06/20 10:52:38;;;;;;;;;;;;;;;28.48;37.26;100499.53;4922778;27;97950;-65
2023/06/20 10:55:23;;;;;;;;;;;;;;;28.62;37.14;100497.66;4931816;28;98364;-65
2023/06/20 10:57:50;;;;;;;;;;;;;;;28.73;37.11;100494.09;4952209;27;98290;-74
2023/06/20 11:00:17;;;;;;;;;;;;;;;28.72;37.27;100500.84;4932323;28;97935;-74
2023/06/20 11:02:51;;;;;;;;;;;;;;;28.67;36.95;100495.69;4923959;28;98194;-65
2023/06/20 11:05:17;;;;;;;;;;;;;;;28.52;37.43;100489.28;4924904;28;98298;-74
2023/06/20 11:08:10;;;;;;;;;;;;;;;28.36;37.58;100486.78;4947072;27;97948;-75
2023/06/20 11:10:37;;;;;;;;;;;;;;;28.22;37.76;100476.44;4951876;27;99509;-65
2023/06/20 11:13:06;;;;;;;;;;;;;;;28.09;37.47;100475.16;4945055;27;98345;-65
2023/06/20 11:15:34;;;;;;;;;;;;;;;27.96;37.54;100480.22;4946392;27;98221;-65
2023/06/20 11:18:06;;;;;;;;;;;;;;;27.89;37.89;100480.16;4946078;28;98152;-65
2023/06/20 11:20:39;;;;;;;;;;;;;;;27.96;37.68;100468.34;4932353;28;98307;-65
2023/06/20 11:23:08;;;;;;;;;;;;;;;28.19;37.14;100470.88;4926162;28;97987;-74
2023/06/20 11:25:36;;;;;;;;;;;;;;;28.47;36.78;100471.03;4932226;27;98177;-65
2023/06/20 11:28:13;;;;;;;;;;;;;;;28.65;36.85;100465.59;4930410;28;98450;-74
2023/06/20 11:30:42;;;;;;;;;;;;;;;28.75;36.59;100456.50;4931799;28;98066;-67
2023/06/20 11:33:12;;;;;;;;;;;;;;;28.79;36.81;100457.28;4952421;27;98228;-75
2023/06/20 11:35:51;;;;;;;;;;;;;;;28.80;36.64;100455.31;4929336;28;98226;-74
2023/06/20 11:38:24;;;;;;;;;;;;;;;28.83;36.89;100452.56;4945723;28;98240;-74
2023/06/20 11:41:06;;;;;;;;;;;;;;;28.93;37.02;100464.88;4948639;27;99659;-65
2023/06/20 11:43:39;;;;;;;;;;;;;;;29.19;36.43;100462.97;4957162;27;98365;-75
2023/06/20 11:46:06;;;;;;;;;;;;;;;29.65;36.21;100451.91;4928401;28;99693;-65
2023/06/20 11:48:33;;;;;;;;;;;;;;;30.98;34.75;100452.34;4928341;28;97978;-74
2023/06/20 11:51:04;;;;;;;;;;;;;;;32.64;33.84;100448.44;4946776;28;97945;-66
2023/06/20 11:53:41;;;;;;;;;;;;;;;32.80;34.13;100445.03;4948003;28;98287;-68
2023/06/20 11:56:08;;;;;;;;;;;;;;;33.48;33.96;100444.03;4920541;28;98271;-77
2023/06/20 11:58:42;;;;;;;;;;;;;;;34.38;32.98;100446.00;4930084;27;98023;-68
2023/06/20 12:01:09;;;;;;;;;;;;;;;35.12;33.22;100443.59;4930416;27;97998;-77
2023/06/20 12:03:36;;;;;;;;;;;;;;;35.72;32.93;100448.94;4956355;28;98430;-78
2023/06/20 12:06:03;;;;;;;;;;;;;;;36.18;32.94;100443.34;4929574;28;99656;-68
2023/06/20 12:08:34;;;;;;;;;;;;;;;36.63;32.74;100440.44;4927771;28;98463;-78
2023/06/20 12:11:02;;;;;;;;;;;;;;;36.96;33.02;100432.63;4923861;28;98271;-78
2023/06/20 12:13:29;;;;;;;;;;;;;;;37.24;32.77;100438.53;4946736;28;98034;-69
2023/06/20 12:15:56;;;;;;;;;;;;;;;37.45;32.81;100425.81;4960485;28;99374;-78
2023/06/20 12:18:22;;;;;;;;;;;;;;;37.64;32.47;100436.00;4940466;28;98660;-78
2023/06/20 12:20:48;;;;;;;;;;;;;;;37.98;32.91;100437.25;4929423;28;98101;-78
2023/06/20 12:23:14;;;;;;;;;;;;;;;38.37;32.23;100433.03;4933446;28;99454;-66
2023/06/20 12:25:41;;;;;;;;;;;;;;;38.65;32.29;100428.31;4938267;28;98398;-76
2023/06/20 12:28:08;;;;;;;;;;;;;;;38.94;32.42;100438.47;4929109;28;98125;-67
2023/06/20 12:30:34;;;;;;;;;;;;;;;38.90;32.91;100429.38;4940231;28;98208;-76
2023/06/20 12:33:02;;;;;;;;;;;;;;;38.93;32.50;100434.88;4927607;28;97964;-76
2023/06/20 12:35:29;;;;;;;;;;;;;;;38.90;33.20;100423.75;4926982;28;98748;-76
2023/06/20 12:37:56;;;;;;;;;;;;;;;38.83;33.08;100424.03;4924357;28;97980;-76
2023/06/20 12:40:24;;;;;;;;;;;;;;;38.76;32.71;100423.06;4946942;28;98270;-67